createdAt,value
2022-08-17T00:01:27.733Z,19.36
2022-08-17T00:06:31.640Z,19.70
2022-08-17T00:12:42.249Z,19.60
2022-08-17T00:17:10.022Z,19.30
2022-08-17T00:22:31.783Z,18.95
2022-08-17T00:27:53.661Z,19.08
2022-08-17T00:33:21.905Z,19.40
2022-08-17T00:38:25.571Z,19.34
2022-08-17T00:43:46.043Z,19.15
2022-08-17T00:49:08.837Z,19.03
2022-08-17T00:54:16.292Z,19.02
2022-08-17T00:59:21.491Z,19.20
2022-08-17T01:04:24.759Z,19.02
2022-08-17T01:09:27.327Z,18.96
2022-08-17T01:14:29.635Z,18.41
2022-08-17T01:19:36.171Z,18.53
2022-08-17T01:24:42.010Z,19.09
2022-08-17T01:29:48.657Z,18.83
2022-08-17T01:34:52.865Z,18.81
2022-08-17T01:40:00.891Z,18.80
2022-08-17T01:45:09.151Z,18.76
2022-08-17T01:50:20.827Z,18.81
2022-08-17T01:55:40.720Z,18.68
2022-08-17T02:01:02.030Z,18.66
2022-08-17T02:06:06.623Z,18.77
2022-08-17T02:11:28.961Z,18.27
2022-08-17T02:16:51.542Z,18.37
2022-08-17T02:21:54.663Z,18.53
2022-08-17T02:26:56.941Z,18.67
2022-08-17T02:32:01.945Z,18.61
2022-08-17T02:37:04.369Z,18.15
2022-08-17T02:42:07.432Z,18.54
2022-08-17T02:47:11.186Z,18.28
2022-08-17T02:52:13.525Z,18.34
2022-08-17T02:57:15.956Z,18.44
2022-08-17T03:02:41.826Z,18.61
2022-08-17T03:07:44.582Z,18.66
2022-08-17T03:12:47.761Z,18.68
2022-08-17T03:18:08.781Z,18.53
2022-08-17T03:23:41.570Z,18.12
2022-08-17T03:28:44.109Z,18.63
2022-08-17T03:33:46.461Z,18.15
2022-08-17T03:38:48.792Z,18.72
2022-08-17T03:43:53.441Z,18.60
2022-08-17T03:49:14.251Z,18.34
2022-08-17T03:54:34.973Z,18.17
2022-08-17T03:59:39.049Z,19.15
2022-08-17T04:04:41.517Z,18.82
2022-08-17T04:09:43.888Z,18.80
2022-08-17T04:14:52.098Z,19.25
2022-08-17T04:19:56.759Z,19.44
2022-08-17T04:24:59.685Z,19.61
2022-08-17T04:30:02.505Z,19.49
2022-08-17T04:35:06.605Z,19.09
2022-08-17T04:40:27.845Z,19.56
2022-08-17T04:45:32.233Z,19.72
2022-08-17T04:50:36.714Z,19.82
2022-08-17T04:55:42.811Z,20.06
2022-08-17T05:00:45.365Z,19.85
2022-08-17T05:06:06.384Z,20.27
2022-08-17T05:11:08.845Z,20.06
2022-08-17T05:16:11.593Z,20.47
2022-08-17T05:21:14.243Z,20.68
2022-08-17T05:26:26.350Z,20.82
2022-08-17T05:31:29.921Z,20.65
2022-08-17T05:36:50.281Z,20.82
2022-08-17T05:41:52.870Z,20.91
2022-08-17T05:47:14.133Z,20.87
2022-08-17T05:52:56.649Z,21.74
2022-08-17T05:58:04.800Z,21.88
2022-08-17T06:03:13.126Z,22.03
2022-08-17T06:08:24.494Z,22.17
2022-08-17T06:14:05.432Z,22.37
2022-08-17T06:19:19.292Z,22.28
2022-08-17T06:24:28.112Z,22.62
2022-08-17T06:29:42.841Z,22.52
2022-08-17T06:34:46.570Z,22.82
2022-08-17T06:40:20.695Z,23.14
2022-08-17T06:45:29.110Z,22.85
2022-08-17T06:50:43.113Z,23.43
2022-08-17T06:55:57.500Z,23.57
2022-08-17T07:01:40.705Z,23.73
2022-08-17T07:06:54.189Z,23.34
2022-08-17T07:12:16.967Z,24.10
2022-08-17T07:17:21.447Z,24.13
2022-08-17T07:23:09.680Z,24.15
2022-08-17T07:28:13.277Z,24.43
2022-08-17T07:33:20.409Z,24.68
2022-08-17T07:38:27.985Z,24.51
2022-08-17T07:43:44.903Z,24.83
2022-08-17T07:48:50.428Z,24.65
2022-08-17T07:54:13.583Z,24.99
2022-08-17T07:59:24.111Z,25.09
2022-08-17T08:05:00.563Z,25.21
2022-08-17T08:10:28.538Z,25.25
2022-08-17T08:15:53.861Z,25.32
2022-08-17T08:21:26.266Z,25.53
2022-08-17T08:26:43.309Z,25.30
2022-08-17T08:31:48.492Z,25.82
2022-08-17T08:37:14.974Z,25.97
2022-08-17T08:42:50.650Z,26.12
2022-08-17T08:48:58.044Z,26.21
2022-08-17T08:53:54.187Z,26.38
2022-08-17T08:59:35.715Z,26.32
2022-08-17T09:05:13.788Z,26.45
2022-08-17T09:10:32.045Z,26.36
2022-08-17T09:16:00.650Z,26.49
2022-08-17T09:21:29.589Z,26.82
2022-08-17T09:27:11.070Z,26.94
2022-08-17T09:32:41.740Z,27.07
2022-08-17T09:38:05.715Z,26.96
2022-08-17T09:43:34.321Z,27.27
2022-08-17T09:48:38.278Z,27.51
2022-08-17T09:53:41.322Z,27.38
2022-08-17T09:59:14.204Z,27.70
2022-08-17T10:04:33.054Z,27.75
2022-08-17T10:09:57.152Z,27.86
2022-08-17T10:15:25.392Z,27.95
2022-08-17T10:20:41.453Z,28.08
2022-08-17T10:26:10.157Z,27.66
2022-08-17T10:31:35.904Z,28.02
2022-08-17T10:36:46.507Z,28.26
2022-08-17T10:42:32.292Z,28.30
2022-08-17T10:47:56.092Z,28.35
2022-08-17T10:52:59.697Z,28.27
2022-08-17T10:58:24.762Z,28.52
2022-08-17T11:03:33.161Z,28.33
2022-08-17T11:08:47.598Z,28.64
2022-08-17T11:14:04.304Z,28.70
2022-08-17T11:19:30.864Z,28.81
2022-08-17T11:24:36.510Z,28.76
2022-08-17T11:29:58.099Z,28.87
2022-08-17T11:35:39.102Z,28.53
2022-08-17T11:40:46.619Z,28.97
2022-08-17T11:46:18.260Z,29.04
2022-08-17T11:51:34.737Z,28.91
2022-08-17T11:56:45.014Z,29.04
2022-08-17T12:01:57.372Z,29.02
2022-08-17T12:07:19.139Z,29.13
2022-08-17T12:12:30.097Z,28.91
2022-08-17T12:17:40.254Z,29.09
2022-08-17T12:23:10.521Z,29.10
2022-08-17T12:28:32.705Z,29.28
2022-08-17T12:33:36.574Z,28.79
2022-08-17T12:38:39.032Z,28.85
2022-08-17T12:43:41.355Z,29.15
2022-08-17T12:48:59.562Z,29.11
2022-08-17T12:54:02.623Z,28.52
2022-08-17T12:59:07.470Z,28.94
2022-08-17T13:04:14.335Z,28.94
2022-08-17T13:09:35.771Z,28.99
2022-08-17T13:14:46.464Z,29.06
2022-08-17T13:19:50.222Z,29.10
2022-08-17T13:24:58.807Z,28.99
2022-08-17T13:30:05.920Z,28.80
2022-08-17T13:35:49.884Z,28.95
2022-08-17T13:40:53.551Z,28.96
2022-08-17T13:46:08.875Z,28.70
2022-08-17T13:51:25.565Z,28.82
2022-08-17T13:56:39.815Z,29.06
2022-08-17T14:01:53.528Z,28.78
2022-08-17T14:07:16.265Z,28.92
2022-08-17T14:12:21.959Z,28.53
2022-08-17T14:17:43.106Z,28.54
2022-08-17T14:23:03.952Z,28.63
2022-08-17T14:28:07.262Z,28.51
2022-08-17T14:33:09.901Z,28.45
2022-08-17T14:38:12.188Z,28.18
2022-08-17T14:43:35.167Z,28.30
2022-08-17T14:48:39.158Z,28.21
2022-08-17T14:53:42.335Z,28.12
2022-08-17T14:58:44.747Z,27.86
2022-08-17T15:03:47.867Z,27.86
2022-08-17T15:08:50.966Z,27.93
2022-08-17T15:13:53.445Z,27.45
2022-08-17T15:19:16.959Z,27.82
2022-08-17T15:24:19.342Z,27.45
2022-08-17T15:29:23.743Z,27.55
2022-08-17T15:34:26.059Z,27.31
2022-08-17T15:39:28.489Z,26.27
2022-08-17T15:44:32.586Z,26.98
2022-08-17T15:49:59.975Z,27.22
2022-08-17T15:55:24.179Z,27.26
2022-08-17T16:00:28.787Z,26.93
2022-08-17T16:05:31.576Z,26.67
2022-08-17T16:10:35.365Z,26.72
2022-08-17T16:15:38.385Z,26.61
2022-08-17T16:20:40.765Z,26.07
2022-08-17T16:25:52.731Z,26.07
2022-08-17T16:30:56.359Z,25.89
2022-08-17T16:36:18.094Z,25.70
2022-08-17T16:42:01.807Z,25.67
2022-08-17T16:47:04.996Z,25.44
2022-08-17T16:52:11.993Z,25.16
2022-08-17T16:57:15.397Z,25.45
2022-08-17T17:02:32.442Z,24.91
2022-08-17T17:08:03.653Z,25.32
2022-08-17T17:13:41.624Z,25.04
2022-08-17T17:19:08.191Z,24.93
2022-08-17T17:24:15.842Z,24.02
2022-08-17T17:29:47.692Z,24.60
2022-08-17T17:34:54.436Z,23.92
2022-08-17T17:40:23.515Z,24.15
2022-08-17T17:45:45.228Z,24.14
2022-08-17T17:52:08.729Z,24.11
2022-08-17T17:57:11.313Z,23.93
2022-08-17T18:02:52.241Z,23.79
2022-08-17T18:08:34.936Z,23.77
2022-08-17T18:13:57.662Z,23.67
2022-08-17T18:19:25.322Z,23.21
2022-08-17T18:24:39.914Z,23.26
2022-08-17T18:30:08.763Z,23.04
2022-08-17T18:35:32.874Z,22.79
2022-08-17T18:40:37.849Z,23.00
2022-08-17T18:45:43.247Z,22.98
2022-08-17T18:51:41.913Z,22.74
2022-08-17T18:56:59.641Z,22.84
2022-08-17T19:07:43.682Z,22.68
2022-08-17T19:13:12.705Z,22.58
2022-08-17T19:18:17.670Z,22.47
2022-08-17T19:23:36.699Z,22.38
2022-08-17T19:28:48.025Z,22.33
2022-08-17T19:34:11.622Z,22.31
2022-08-17T19:39:38.155Z,22.31
2022-08-17T19:44:59.807Z,22.14
2022-08-17T19:50:38.723Z,21.72
2022-08-17T19:56:12.682Z,22.08
2022-08-17T20:01:40.577Z,21.65
2022-08-17T20:06:44.783Z,21.67
2022-08-17T20:12:19.274Z,21.36
2022-08-17T20:17:25.636Z,22.01
2022-08-17T20:22:49.697Z,21.54
2022-08-17T20:28:06.011Z,21.04
2022-08-17T20:33:27.858Z,21.65
2022-08-17T20:38:44.559Z,21.52
2022-08-17T20:44:07.377Z,21.53
2022-08-17T20:49:35.872Z,21.35
2022-08-17T20:54:57.572Z,21.03
2022-08-17T21:00:30.092Z,21.25
2022-08-17T21:05:57.321Z,21.00
2022-08-17T21:11:59.980Z,20.96
2022-08-17T21:17:20.353Z,21.02
2022-08-17T21:22:31.986Z,21.01
2022-08-17T21:28:07.382Z,20.95
2022-08-17T21:33:33.640Z,20.07
2022-08-17T21:38:48.009Z,20.78
2022-08-17T21:43:52.336Z,20.63
2022-08-17T21:48:55.633Z,19.85
2022-08-17T21:54:05.109Z,20.31
2022-08-17T21:59:34.871Z,20.33
2022-08-17T22:05:08.956Z,20.24
2022-08-17T22:10:50.689Z,20.59
2022-08-17T22:16:27.940Z,20.47
2022-08-17T22:21:31.488Z,20.16
2022-08-17T22:27:07.715Z,20.38
2022-08-17T22:32:41.698Z,20.11
2022-08-17T22:38:20.884Z,20.27
2022-08-17T22:43:28.829Z,19.85
2022-08-17T22:48:31.508Z,19.60
2022-08-17T22:53:53.785Z,19.58
2022-08-17T22:59:16.580Z,19.60
2022-08-17T23:04:46.325Z,20.03
2022-08-17T23:09:52.067Z,19.84
2022-08-17T23:15:02.359Z,19.70
2022-08-17T23:20:09.349Z,19.55
2022-08-17T23:25:32.113Z,19.70
2022-08-17T23:30:52.777Z,19.42
2022-08-17T23:35:55.115Z,19.44
2022-08-17T23:41:21.273Z,19.54
2022-08-17T23:46:44.610Z,19.24
2022-08-17T23:51:48.259Z,18.78
2022-08-17T23:56:50.695Z,19.00
